Potosí, Bolivia

2:38 PM BOT en Diciembre 20, 2014 (GMT -0400)
Potosi | Change Station
CLOSE
Current Station
Aeropuerto
Location: Potosi,
Altura: 12907 ft
Estaciones meteorológicas cercanas

Alt 12907 ft 19.54 °S, 65.72 °W | Updated 1 hour ago

Mostly Cloudy
Muy nublado
61 ° F
Sensación térmica 61 ° F
N
9
Viento Variable Viento desde OSO

Hoy
Alta -- | Baja -- ° F
--% Posibilidad de precipitaciones
Ayer
Alta -- | Baja -- ° F
Precip. -- pul
5:41 AM 6:59 PM
Creciente menguante, 2% visible
Presión 30.45 pul
Visibilidad 6.2 Millas
Nubes Nubes dispersas 2000 ft
Muy nublado 20000 ft
Punto de rocío 43 ° F
Humedad 52%
Precipitaciones 0.00 pul
Espesor de la nieve No disponible.
UV 11 de una escala de 12
Polen No disponible.
Calidad del aire No disponible.
Flu Activity No disponible.
METAR SLPO 201700Z 24008KT 9999 SCT020 BKN200 16/06 Q1031

More Conditions Fewer Conditions

Presión 30.45 pul
Visibilidad 6.2 Millas
Nubes Nubes dispersas 2000 ft
Muy nublado 20000 ft
Punto de rocío 43 ° F
Humedad 52%
Precipitaciones 0.00 pul
Espesor de la nieve No disponible.
UV 11 de una escala de 12
Polen No disponible.
Calidad del aire No disponible.
Flu Activity No disponible.
METAR SLPO 201700Z 24008KT 9999 SCT020 BKN200 16/06 Q1031

More Conditions Fewer Conditions

10-Day Weather Forecast

Almanac

Astronomía

Dec. 20, 2014 Salida Puesta
Hora real
Crepúsculo civil
Crepúsculo náutico
Crepúsculo astronómico
Luna
Horas de luz
Horas de luz
Tomorrow will be .
, % of the Moon is Illuminated

Extremos de hoy

Máximos del país Bajas del país

Community

WunderPhotos

Upload Photos

1,779,244 ¡fotos cargadas!

WunderBlogs® & News

Nearby

Calidad del aire

  Calidad del aire Índice AQ Contaminante
Not available.

Grosos de nieve

Estación Profundido Altura

Actividad de terremotos

Ciudad Distance Mag. Tiempo y dato
Magnitud mínima muestra es 2,5.

Temperaturas de aguas costeras

Lugar Temperatura

Estaciones meteorológicas cercanas